< < Back
Terminal Aerodrome Forecast


Current Version              Previous Versions:   1  2  3  4  5  6  7  8  9  

Terminal Aerodrome Forecast

861
FTUS42 KCHS 301100 AAB
TAFCHS
TAF AMD
KCHS 301108Z 3011/0106 02009KT P6SM BKN025
     FM301700 04010G15KT P6SM SCT025 BKN035 BKN080
     FM302100 05004KT P6SM SKC=



Latest METAR

359
SAUS80 KWBC 302200
MTRCHS
METAR KCHS 302156Z 00000KT 10SM FEW040 28/17 A2984 RMK AO2 SLP105
T02780172


USA.gov is the U.S. government's official web portal to all federal, state and local government web resources and services.